This is the latest recevied weather packets stored in our database for station/object MO0NET-13. If no packets are shown the sender has not sent any weather packets the latest 10 day(s).
| Time | Temp. | Humidity | Pressure | Rain* | Wind** | Luminosity | Snow |
|---|---|---|---|---|---|---|---|
| 1788314403 | 15.56° C | 87% | 1020.8 hPa | 0 mm | - | 0 W/m² | - |
| 1788313203 | 15.56° C | 87% | 1020.6 hPa | 0 mm | - | 0 W/m² | - |
| 1788312003 | 15.56° C | 87% | 1020.4 hPa | 0 mm | - | 0 W/m² | - |
| 1788310803 | 15.56° C | 88% | 1020.4 hPa | 0 mm | - | 0 W/m² | - |
| 1788309603 | 15.56° C | 87% | 1020.5 hPa | 0 mm | - | 0 W/m² | - |
| 1788308403 | 15.56° C | 86% | 1020.8 hPa | 0 mm | - | 0 W/m² | - |
| 1788307203 | 15.56° C | 88% | 1020.9 hPa | 0 mm | - | 0 W/m² | - |
| 1788306003 | 15° C | 90% | 1020.8 hPa | 0 mm | - | 0 W/m² | - |
| 1788304803 | 15° C | 90% | 1020.6 hPa | 0 mm | - | 0 W/m² | - |
| 1788303603 | 15° C | 90% | 1020.8 hPa | 0 mm | - | 0 W/m² | - |
| 1788302403 | 15° C | 90% | 1020.8 hPa | 0 mm | - | 0 W/m² | - |
| 1788301203 | 15° C | 89% | 1021.1 hPa | 0 mm | - | 0 W/m² | - |
| 1788300003 | 15° C | 90% | 1021.5 hPa | 0 mm | - | 0 W/m² | - |
| 1788298803 | 14.44° C | 90% | 1021.3 hPa | 0 mm | - | 0 W/m² | - |
| 1788297603 | 15° C | 89% | 1021.2 hPa | 0 mm | - | 0 W/m² | - |
| 1788296403 | 15° C | 87% | 1021.1 hPa | 0 mm | - | 0 W/m² | - |
| 1788295203 | 15° C | 86% | 1021 hPa | 0 mm | - | 0 W/m² | - |
| 1788294003 | 15.56° C | 85% | 1021 hPa | 0 mm | - | 0 W/m² | - |
| 1788292803 | 15.56° C | 83% | 1021 hPa | 0 mm | - | 0 W/m² | - |
| 1788291603 | 16.11° C | 81% | 1020.7 hPa | 0 mm | - | 0 W/m² | - |
| 1788290403 | 16.67° C | 77% | 1020.8 hPa | 0 mm | - | 0 W/m² | - |
| 1788289203 | 17.78° C | 75% | 1020.7 hPa | 0 mm | - | 0 W/m² | - |
| 1788288003 | 18.89° C | 67% | 1020.9 hPa | 0 mm | - | 0 W/m² | - |
| 1788286803 | 19.44° C | 65% | 1020.8 hPa | 0 mm | - | 2 W/m² | - |
| 1788285603 | 20° C | 61% | 1020.7 hPa | 0 mm | - | 12 W/m² | - |
* Rain latest hour (hover to see other rain measurements)
** Current wind speed in m/s (hover to see current wind gust speed)